sensor_id;sensor_type;location;lat;lon;timestamp;P1;durP1;ratioP1;P2;durP2;ratioP2
31754;SDS011;18325;52.018;4.726;2023-10-19T00:00:15;14.73;;;8.50;;
31754;SDS011;18325;52.018;4.726;2023-10-19T00:02:48;12.57;;;7.47;;
31754;SDS011;18325;52.018;4.726;2023-10-19T00:05:17;13.63;;;7.67;;
31754;SDS011;18325;52.018;4.726;2023-10-19T00:07:43;14.77;;;8.90;;
31754;SDS011;18325;52.018;4.726;2023-10-19T00:10:10;16.93;;;8.77;;
31754;SDS011;18325;52.018;4.726;2023-10-19T00:12:40;15.53;;;8.23;;
31754;SDS011;18325;52.018;4.726;2023-10-19T00:15:06;13.90;;;8.57;;
31754;SDS011;18325;52.018;4.726;2023-10-19T00:17:36;12.70;;;8.37;;
31754;SDS011;18325;52.018;4.726;2023-10-19T00:20:05;17.77;;;9.40;;
31754;SDS011;18325;52.018;4.726;2023-10-19T00:22:54;15.90;;;8.87;;
31754;SDS011;18325;52.018;4.726;2023-10-19T00:25:23;13.20;;;8.43;;
31754;SDS011;18325;52.018;4.726;2023-10-19T00:27:51;16.93;;;8.80;;
31754;SDS011;18325;52.018;4.726;2023-10-19T00:30:25;13.13;;;8.50;;
31754;SDS011;18325;52.018;4.726;2023-10-19T00:32:57;14.00;;;8.73;;
31754;SDS011;18325;52.018;4.726;2023-10-19T00:35:28;16.27;;;8.63;;
31754;SDS011;18325;52.018;4.726;2023-10-19T00:38:01;13.50;;;8.67;;
31754;SDS011;18325;52.018;4.726;2023-10-19T00:40:41;12.37;;;8.03;;
31754;SDS011;18325;52.018;4.726;2023-10-19T00:43:12;16.03;;;8.90;;
31754;SDS011;18325;52.018;4.726;2023-10-19T00:45:46;16.07;;;8.47;;
31754;SDS011;18325;52.018;4.726;2023-10-19T00:48:16;13.40;;;8.40;;
31754;SDS011;18325;52.018;4.726;2023-10-19T00:50:54;15.40;;;8.67;;
31754;SDS011;18325;52.018;4.726;2023-10-19T00:53:33;13.27;;;8.07;;
31754;SDS011;18325;52.018;4.726;2023-10-19T00:56:01;13.17;;;8.30;;
31754;SDS011;18325;52.018;4.726;2023-10-19T01:01:37;16.27;;;9.67;;
31754;SDS011;18325;52.018;4.726;2023-10-19T01:04:10;13.87;;;8.60;;
31754;SDS011;18325;52.018;4.726;2023-10-19T01:06:39;13.27;;;9.10;;
31754;SDS011;18325;52.018;4.726;2023-10-19T01:09:08;14.63;;;8.93;;
31754;SDS011;18325;52.018;4.726;2023-10-19T01:11:37;11.67;;;8.47;;
31754;SDS011;18325;52.018;4.726;2023-10-19T01:14:27;15.27;;;9.00;;
31754;SDS011;18325;52.018;4.726;2023-10-19T01:16:54;17.20;;;8.23;;
31754;SDS011;18325;52.018;4.726;2023-10-19T01:19:23;17.13;;;8.90;;
31754;SDS011;18325;52.018;4.726;2023-10-19T01:21:52;14.10;;;7.87;;
31754;SDS011;18325;52.018;4.726;2023-10-19T01:24:26;17.40;;;8.33;;
31754;SDS011;18325;52.018;4.726;2023-10-19T01:27:05;13.77;;;8.10;;
31754;SDS011;18325;52.018;4.726;2023-10-19T01:29:41;16.33;;;8.63;;
31754;SDS011;18325;52.018;4.726;2023-10-19T01:32:07;14.20;;;8.40;;
31754;SDS011;18325;52.018;4.726;2023-10-19T02:04:32;3.70;;;3.10;;
31754;SDS011;18325;52.018;4.726;2023-10-19T02:07:00;5.77;;;3.30;;
31754;SDS011;18325;52.018;4.726;2023-10-19T02:09:26;5.83;;;3.40;;
31754;SDS011;18325;52.018;4.726;2023-10-19T02:12:00;5.60;;;2.87;;
31754;SDS011;18325;52.018;4.726;2023-10-19T02:14:29;4.10;;;2.20;;
31754;SDS011;18325;52.018;4.726;2023-10-19T02:16:55;2.80;;;2.10;;
31754;SDS011;18325;52.018;4.726;2023-10-19T02:19:27;3.80;;;2.60;;
31754;SDS011;18325;52.018;4.726;2023-10-19T02:21:55;2.77;;;1.90;;
31754;SDS011;18325;52.018;4.726;2023-10-19T02:24:36;1.60;;;1.50;;
31754;SDS011;18325;52.018;4.726;2023-10-19T02:27:05;3.10;;;2.13;;
31754;SDS011;18325;52.018;4.726;2023-10-19T02:29:31;2.40;;;2.20;;
31754;SDS011;18325;52.018;4.726;2023-10-19T02:32:01;2.93;;;1.80;;
31754;SDS011;18325;52.018;4.726;2023-10-19T02:34:29;1.80;;;1.30;;
31754;SDS011;18325;52.018;4.726;2023-10-19T02:36:55;2.10;;;1.30;;
31754;SDS011;18325;52.018;4.726;2023-10-19T02:39:21;2.33;;;1.27;;
31754;SDS011;18325;52.018;4.726;2023-10-19T02:41:53;2.10;;;1.57;;
31754;SDS011;18325;52.018;4.726;2023-10-19T02:44:21;2.20;;;1.17;;
31754;SDS011;18325;52.018;4.726;2023-10-19T02:47:00;2.13;;;1.20;;
31754;SDS011;18325;52.018;4.726;2023-10-19T02:49:31;1.00;;;0.90;;
31754;SDS011;18325;52.018;4.726;2023-10-19T02:51:57;2.57;;;1.33;;
31754;SDS011;18325;52.018;4.726;2023-10-19T02:54:28;1.37;;;1.07;;
31754;SDS011;18325;52.018;4.726;2023-10-19T02:57:01;1.87;;;1.13;;
31754;SDS011;18325;52.018;4.726;2023-10-19T02:59:32;1.13;;;1.03;;
31754;SDS011;18325;52.018;4.726;2023-10-19T03:02:00;1.40;;;1.30;;
31754;SDS011;18325;52.018;4.726;2023-10-19T03:04:26;1.97;;;1.37;;
31754;SDS011;18325;52.018;4.726;2023-10-19T03:06:53;2.03;;;1.47;;
31754;SDS011;18325;52.018;4.726;2023-10-19T03:09:21;4.10;;;1.40;;
31754;SDS011;18325;52.018;4.726;2023-10-19T03:11:54;3.90;;;1.50;;
31754;SDS011;18325;52.018;4.726;2023-10-19T03:14:36;2.73;;;2.10;;
31754;SDS011;18325;52.018;4.726;2023-10-19T03:17:03;2.30;;;2.10;;
31754;SDS011;18325;52.018;4.726;2023-10-19T03:19:30;2.83;;;2.50;;
31754;SDS011;18325;52.018;4.726;2023-10-19T03:21:57;3.57;;;2.57;;
31754;SDS011;18325;52.018;4.726;2023-10-19T03:24:25;4.27;;;2.10;;
31754;SDS011;18325;52.018;4.726;2023-10-19T03:27:01;4.73;;;2.20;;
31754;SDS011;18325;52.018;4.726;2023-10-19T03:29:27;3.27;;;2.20;;
31754;SDS011;18325;52.018;4.726;2023-10-19T03:34:54;2.87;;;1.30;;
31754;SDS011;18325;52.018;4.726;2023-10-19T03:37:21;1.67;;;1.23;;
31754;SDS011;18325;52.018;4.726;2023-10-19T03:39:49;0.90;;;0.90;;
31754;SDS011;18325;52.018;4.726;2023-10-19T03:42:22;4.13;;;1.17;;
31754;SDS011;18325;52.018;4.726;2023-10-19T03:44:53;2.13;;;0.90;;
31754;SDS011;18325;52.018;4.726;2023-10-19T03:47:21;5.13;;;0.83;;
31754;SDS011;18325;52.018;4.726;2023-10-19T03:49:52;1.57;;;0.90;;
31754;SDS011;18325;52.018;4.726;2023-10-19T03:52:19;2.10;;;0.80;;
31754;SDS011;18325;52.018;4.726;2023-10-19T03:54:46;5.57;;;1.00;;
31754;SDS011;18325;52.018;4.726;2023-10-19T03:57:14;1.40;;;0.60;;
31754;SDS011;18325;52.018;4.726;2023-10-19T03:59:44;5.10;;;1.60;;
31754;SDS011;18325;52.018;4.726;2023-10-19T04:02:37;2.03;;;0.70;;
31754;SDS011;18325;52.018;4.726;2023-10-19T04:05:13;4.10;;;0.87;;
31754;SDS011;18325;52.018;4.726;2023-10-19T04:07:46;2.40;;;0.90;;
31754;SDS011;18325;52.018;4.726;2023-10-19T04:10:15;4.67;;;1.27;;
31754;SDS011;18325;52.018;4.726;2023-10-19T04:12:54;1.40;;;0.80;;
31754;SDS011;18325;52.018;4.726;2023-10-19T04:15:24;3.37;;;0.90;;
31754;SDS011;18325;52.018;4.726;2023-10-19T04:17:53;7.70;;;0.90;;
31754;SDS011;18325;52.018;4.726;2023-10-19T04:20:23;1.07;;;0.77;;
31754;SDS011;18325;52.018;4.726;2023-10-19T04:22:55;1.60;;;0.70;;
31754;SDS011;18325;52.018;4.726;2023-10-19T04:28:03;2.00;;;0.80;;
31754;SDS011;18325;52.018;4.726;2023-10-19T04:30:36;1.17;;;0.90;;
31754;SDS011;18325;52.018;4.726;2023-10-19T04:33:04;1.80;;;1.00;;
31754;SDS011;18325;52.018;4.726;2023-10-19T04:35:34;1.33;;;0.80;;
31754;SDS011;18325;52.018;4.726;2023-10-19T04:38:03;0.97;;;0.70;;
31754;SDS011;18325;52.018;4.726;2023-10-19T04:40:31;2.37;;;0.70;;
31754;SDS011;18325;52.018;4.726;2023-10-19T04:42:58;3.93;;;1.17;;
31754;SDS011;18325;52.018;4.726;2023-10-19T04:48:49;1.13;;;1.03;;
31754;SDS011;18325;52.018;4.726;2023-10-19T04:51:15;3.13;;;0.80;;
31754;SDS011;18325;52.018;4.726;2023-10-19T04:53:42;4.47;;;1.13;;
31754;SDS011;18325;52.018;4.726;2023-10-19T04:56:09;1.20;;;0.70;;
31754;SDS011;18325;52.018;4.726;2023-10-19T04:58:37;3.40;;;1.20;;
31754;SDS011;18325;52.018;4.726;2023-10-19T05:01:04;4.97;;;1.13;;
31754;SDS011;18325;52.018;4.726;2023-10-19T05:03:31;2.97;;;0.80;;
31754;SDS011;18325;52.018;4.726;2023-10-19T05:05:59;4.43;;;1.20;;
31754;SDS011;18325;52.018;4.726;2023-10-19T05:08:26;2.13;;;1.10;;
31754;SDS011;18325;52.018;4.726;2023-10-19T05:10:53;2.47;;;1.10;;
31754;SDS011;18325;52.018;4.726;2023-10-19T05:13:20;2.03;;;1.30;;
31754;SDS011;18325;52.018;4.726;2023-10-19T05:16:00;2.63;;;1.10;;
31754;SDS011;18325;52.018;4.726;2023-10-19T05:18:39;3.90;;;1.33;;
31754;SDS011;18325;52.018;4.726;2023-10-19T05:21:07;2.33;;;1.10;;
31754;SDS011;18325;52.018;4.726;2023-10-19T05:23:35;6.53;;;1.40;;
31754;SDS011;18325;52.018;4.726;2023-10-19T05:26:03;4.03;;;1.63;;
31754;SDS011;18325;52.018;4.726;2023-10-19T05:28:31;4.43;;;1.70;;
31754;SDS011;18325;52.018;4.726;2023-10-19T05:30:58;3.07;;;1.17;;
31754;SDS011;18325;52.018;4.726;2023-10-19T05:33:26;4.07;;;1.40;;
31754;SDS011;18325;52.018;4.726;2023-10-19T05:35:55;6.33;;;1.50;;
31754;SDS011;18325;52.018;4.726;2023-10-19T05:38:24;2.03;;;1.50;;
31754;SDS011;18325;52.018;4.726;2023-10-19T05:40:52;3.87;;;1.30;;
31754;SDS011;18325;52.018;4.726;2023-10-19T05:43:23;1.63;;;1.20;;
31754;SDS011;18325;52.018;4.726;2023-10-19T05:45:49;3.10;;;1.57;;
31754;SDS011;18325;52.018;4.726;2023-10-19T05:48:28;4.33;;;1.57;;
31754;SDS011;18325;52.018;4.726;2023-10-19T05:51:15;4.70;;;1.77;;
31754;SDS011;18325;52.018;4.726;2023-10-19T05:53:57;5.07;;;1.80;;
31754;SDS011;18325;52.018;4.726;2023-10-19T05:56:39;4.53;;;1.50;;
31754;SDS011;18325;52.018;4.726;2023-10-19T05:59:08;3.17;;;1.20;;
31754;SDS011;18325;52.018;4.726;2023-10-19T06:02:00;3.17;;;1.40;;
31754;SDS011;18325;52.018;4.726;2023-10-19T06:04:30;3.73;;;1.73;;
31754;SDS011;18325;52.018;4.726;2023-10-19T06:06:57;5.47;;;1.97;;
31754;SDS011;18325;52.018;4.726;2023-10-19T06:09:25;7.67;;;2.97;;
31754;SDS011;18325;52.018;4.726;2023-10-19T06:14:39;11.50;;;6.63;;
31754;SDS011;18325;52.018;4.726;2023-10-19T06:17:06;13.37;;;7.10;;
31754;SDS011;18325;52.018;4.726;2023-10-19T06:19:44;8.53;;;4.87;;
31754;SDS011;18325;52.018;4.726;2023-10-19T06:22:11;7.50;;;3.07;;
31754;SDS011;18325;52.018;4.726;2023-10-19T06:24:44;3.90;;;1.90;;
31754;SDS011;18325;52.018;4.726;2023-10-19T06:27:11;3.27;;;2.43;;
31754;SDS011;18325;52.018;4.726;2023-10-19T06:29:40;2.13;;;1.60;;
31754;SDS011;18325;52.018;4.726;2023-10-19T06:32:06;4.13;;;1.50;;
31754;SDS011;18325;52.018;4.726;2023-10-19T06:34:34;3.33;;;1.40;;
31754;SDS011;18325;52.018;4.726;2023-10-19T06:37:00;3.23;;;1.47;;
31754;SDS011;18325;52.018;4.726;2023-10-19T06:39:31;4.70;;;2.23;;
31754;SDS011;18325;52.018;4.726;2023-10-19T06:42:10;11.53;;;4.53;;
31754;SDS011;18325;52.018;4.726;2023-10-19T06:47:26;4.57;;;1.93;;
31754;SDS011;18325;52.018;4.726;2023-10-19T06:49:59;6.97;;;2.70;;
31754;SDS011;18325;52.018;4.726;2023-10-19T06:52:30;3.73;;;2.07;;
31754;SDS011;18325;52.018;4.726;2023-10-19T06:54:57;3.57;;;1.83;;
31754;SDS011;18325;52.018;4.726;2023-10-19T06:57:25;3.10;;;1.80;;
31754;SDS011;18325;52.018;4.726;2023-10-19T06:59:52;2.17;;;1.70;;
31754;SDS011;18325;52.018;4.726;2023-10-19T07:02:25;3.10;;;1.40;;
31754;SDS011;18325;52.018;4.726;2023-10-19T07:04:51;4.60;;;1.70;;
31754;SDS011;18325;52.018;4.726;2023-10-19T07:07:18;2.17;;;1.63;;
31754;SDS011;18325;52.018;4.726;2023-10-19T07:09:57;4.97;;;1.70;;
31754;SDS011;18325;52.018;4.726;2023-10-19T07:12:24;2.93;;;1.57;;
31754;SDS011;18325;52.018;4.726;2023-10-19T07:14:52;3.00;;;1.50;;
31754;SDS011;18325;52.018;4.726;2023-10-19T07:17:19;4.20;;;1.80;;
31754;SDS011;18325;52.018;4.726;2023-10-19T07:19:47;4.10;;;1.50;;
31754;SDS011;18325;52.018;4.726;2023-10-19T07:22:15;3.20;;;1.50;;
31754;SDS011;18325;52.018;4.726;2023-10-19T07:24:42;5.33;;;2.20;;
31754;SDS011;18325;52.018;4.726;2023-10-19T07:27:09;53.90;;;28.60;;
31754;SDS011;18325;52.018;4.726;2023-10-19T07:29:57;13.73;;;7.30;;
31754;SDS011;18325;52.018;4.726;2023-10-19T07:32:51;7.30;;;3.23;;
31754;SDS011;18325;52.018;4.726;2023-10-19T07:35:25;2.93;;;1.43;;
31754;SDS011;18325;52.018;4.726;2023-10-19T07:37:54;3.03;;;1.77;;
31754;SDS011;18325;52.018;4.726;2023-10-19T07:40:27;2.30;;;1.10;;
31754;SDS011;18325;52.018;4.726;2023-10-19T07:42:55;3.13;;;1.40;;
31754;SDS011;18325;52.018;4.726;2023-10-19T07:45:23;6.97;;;1.20;;
31754;SDS011;18325;52.018;4.726;2023-10-19T07:48:02;5.97;;;1.50;;
31754;SDS011;18325;52.018;4.726;2023-10-19T07:50:36;5.47;;;1.47;;
31754;SDS011;18325;52.018;4.726;2023-10-19T07:53:19;2.47;;;1.20;;
31754;SDS011;18325;52.018;4.726;2023-10-19T07:56:23;2.63;;;1.20;;
31754;SDS011;18325;52.018;4.726;2023-10-19T07:59:06;4.67;;;1.33;;
31754;SDS011;18325;52.018;4.726;2023-10-19T08:01:55;2.43;;;1.23;;
31754;SDS011;18325;52.018;4.726;2023-10-19T08:04:30;3.10;;;1.27;;
31754;SDS011;18325;52.018;4.726;2023-10-19T08:10:03;1.27;;;1.17;;
31754;SDS011;18325;52.018;4.726;2023-10-19T08:13:00;13.60;;;1.70;;
31754;SDS011;18325;52.018;4.726;2023-10-19T08:15:50;2.30;;;1.30;;
